<?xml version='1.0' encoding='utf-8'?>
<gpx xmlns="http://www.topografix.com/GPX/1/1" creator="HOLUX ezTour Plus" version="1.1">
<metadata>
<link href="http://www.holux.com"><text>HOLUX Technology, Inc.</text></link>
<time>2012-08-01T18:52:28Z</time></metadata>
<trk>
<name>raw10</name>
<trkseg>
<trkpt lat="63.749572754" lon="-20.240041733">
<ele>30.2</ele>
<time>2012-07-27T10:48:28Z</time>
<speed>0.020000</speed>
<extensions>
<speed>0.0</speed>
<temp>0.00</temp>
<bpm>0</bpm>
<rpm>0.00</rpm>
</extensions>
</trkpt>
<trkpt lat="63.749832153" lon="-20.238674164">
<ele>29.7</ele>
<time>2012-07-27T10:53:58Z</time>
<speed>2.840000</speed>
<extensions>
<speed>2.8</speed>
<temp>0.00</temp>
<bpm>0</bpm>
<rpm>0.00</rpm>
</extensions>
</trkpt>
<trkpt lat="63.750213623" lon="-20.238895416">
<ele>29.6</ele>
<time>2012-07-27T10:54:18Z</time>
<speed>1.870000</speed>
<extensions>
<speed>1.9</speed>
<temp>0.00</temp>
<bpm>0</bpm>
<rpm>0.00</rpm>
</extensions>
</trkpt>
<trkpt lat="63.750400543" lon="-20.237247467">
<ele>29.9</ele>
<time>2012-07-27T10:54:48Z</time>
<speed>3.110000</speed>
<extensions>
<speed>3.1</speed>
<temp>0.00</temp>
<bpm>0</bpm>
<rpm>0.00</rpm>
</extensions>
</trkpt>
<trkpt lat="63.750907898" lon="-20.236331940">
<ele>30.6</ele>
<time>2012-07-27T10:55:13Z</time>
<speed>1.660000</speed>
<extensions>
<speed>1.7</speed>
<temp>0.00</temp>
<bpm>0</bpm>
<rpm>0.00</rpm>
</extensions>
</trkpt>
<trkpt lat="63.751140594" lon="-20.235454559">
<ele>30.4</ele>
<time>2012-07-27T10:55:33Z</time>
<speed>1.960000</speed>
<extensions>
<speed>2.0</speed>
<temp>0.00</temp>
<bpm>0</bpm>
<rpm>0.00</rpm>
</extensions>
</trkpt>
<trkpt lat="63.749958038" lon="-20.233514786">
<ele>31.6</ele>
<time>2012-07-27T10:56:48Z</time>
<speed>1.230000</speed>
<extensions>
<speed>1.2</speed>
<temp>0.00</temp>
<bpm>0</bpm>
<rpm>0.00</rpm>
</extensions>
</trkpt>
<trkpt lat="63.750091553" lon="-20.232803345">
<ele>33.0</ele>
<time>2012-07-27T10:57:08Z</time>
<speed>0.490000</speed>
<extensions>
<speed>0.5</speed>
<temp>0.00</temp>
<bpm>0</bpm>
<rpm>0.00</rpm>
</extensions>
</trkpt>
<trkpt lat="63.749923706" lon="-20.233034134">
<ele>32.1</ele>
<time>2012-07-27T11:36:18Z</time>
<speed>0.010000</speed>
<extensions>
<speed>0.0</speed>
<temp>0.00</temp>
<bpm>0</bpm>
<rpm>0.00</rpm>
</extensions>
</trkpt>
<trkpt lat="63.750339508" lon="-20.233974457">
<ele>31.5</ele>
<time>2012-07-27T11:36:48Z</time>
<speed>3.290000</speed>
<extensions>
<speed>3.3</speed>
<temp>0.00</temp>
<bpm>0</bpm>
<rpm>0.00</rpm>
</extensions>
</trkpt>
<trkpt lat="63.754627228" lon="-20.240564346">
<ele>31.6</ele>
<time>2012-07-27T11:39:08Z</time>
<speed>4.830000</speed>
<extensions>
<speed>4.8</speed>
<temp>0.00</temp>
<bpm>0</bpm>
<rpm>0.00</rpm>
</extensions>
</trkpt>
<trkpt lat="63.759040833" lon="-20.247869492">
<ele>31.5</ele>
<time>2012-07-27T11:41:18Z</time>
<speed>4.940000</speed>
<extensions>
<speed>4.9</speed>
<temp>0.00</temp>
<bpm>0</bpm>
<rpm>0.00</rpm>
</extensions>
</trkpt>
<trkpt lat="63.769699097" lon="-20.270641327">
<ele>32.0</ele>
<time>2012-07-27T11:47:53Z</time>
<speed>0.040000</speed>
<extensions>
<speed>0.0</speed>
<temp>0.00</temp>
<bpm>0</bpm>
<rpm>0.00</rpm>
</extensions>
</trkpt>
<trkpt lat="63.771236420" lon="-20.273599625">
<ele>32.5</ele>
<time>2012-07-27T12:00:58Z</time>
<speed>2.370000</speed>
<extensions>
<speed>2.4</speed>
<temp>0.00</temp>
<bpm>0</bpm>
<rpm>0.00</rpm>
</extensions>
</trkpt>
<trkpt lat="63.772979736" lon="-20.276287079">
<ele>32.2</ele>
<time>2012-07-27T12:01:53Z</time>
<speed>4.760000</speed>
<extensions>
<speed>4.8</speed>
<temp>0.00</temp>
<bpm>0</bpm>
<rpm>0.00</rpm>
</extensions>
</trkpt>
<trkpt lat="63.779747009" lon="-20.284524918">
<ele>23.3</ele>
<time>2012-07-27T12:04:18Z</time>
<speed>4.380000</speed>
<extensions>
<speed>4.4</speed>
<temp>0.00</temp>
<bpm>0</bpm>
<rpm>0.00</rpm>
</extensions>
</trkpt>
<trkpt lat="63.789943695" lon="-20.299903870">
<ele>30.0</ele>
<time>2012-07-27T12:09:58Z</time>
<speed>4.460000</speed>
<extensions>
<speed>4.5</speed>
<temp>0.00</temp>
<bpm>0</bpm>
<rpm>0.00</rpm>
</extensions>
</trkpt>
<trkpt lat="63.795696259" lon="-20.312713623">
<ele>28.8</ele>
<time>2012-07-27T12:12:58Z</time>
<speed>4.030000</speed>
<extensions>
<speed>4.0</speed>
<temp>0.00</temp>
<bpm>0</bpm>
<rpm>0.00</rpm>
</extensions>
</trkpt>
<trkpt lat="63.806503296" lon="-20.332521439">
<ele>32.6</ele>
<time>2012-07-27T12:19:08Z</time>
<speed>4.260000</speed>
<extensions>
<speed>4.3</speed>
<temp>0.00</temp>
<bpm>0</bpm>
<rpm>0.00</rpm>
</extensions>
</trkpt>
<trkpt lat="63.809040070" lon="-20.336868286">
<ele>30.8</ele>
<time>2012-07-27T12:20:33Z</time>
<speed>4.890000</speed>
<extensions>
<speed>4.9</speed>
<temp>0.00</temp>
<bpm>0</bpm>
<rpm>0.00</rpm>
</extensions>
</trkpt>
<trkpt lat="63.812500000" lon="-20.341884613">
<ele>26.9</ele>
<time>2012-07-27T12:22:08Z</time>
<speed>4.780000</speed>
<extensions>
<speed>4.8</speed>
<temp>0.00</temp>
<bpm>0</bpm>
<rpm>0.00</rpm>
</extensions>
</trkpt>
<trkpt lat="63.815570831" lon="-20.348520279">
<ele>33.5</ele>
<time>2012-07-27T12:24:18Z</time>
<speed>4.200000</speed>
<extensions>
<speed>4.2</speed>
<temp>0.00</temp>
<bpm>0</bpm>
<rpm>0.00</rpm>
</extensions>
</trkpt>
<trkpt lat="63.817344666" lon="-20.351768494">
<ele>32.4</ele>
<time>2012-07-27T12:25:23Z</time>
<speed>4.080000</speed>
<extensions>
<speed>4.1</speed>
<temp>0.00</temp>
<bpm>0</bpm>
<rpm>0.00</rpm>
</extensions>
</trkpt>
<trkpt lat="63.821735382" lon="-20.357940674">
<ele>19.3</ele>
<time>2012-07-27T12:27:23Z</time>
<speed>3.890000</speed>
<extensions>
<speed>3.9</speed>
<temp>0.00</temp>
<bpm>0</bpm>
<rpm>0.00</rpm>
</extensions>
</trkpt>
<trkpt lat="63.823806763" lon="-20.361440659">
<ele>24.9</ele>
<time>2012-07-27T12:29:03Z</time>
<speed>2.550000</speed>
<extensions>
<speed>2.6</speed>
<temp>0.00</temp>
<bpm>0</bpm>
<rpm>0.00</rpm>
</extensions>
</trkpt>
<trkpt lat="63.825073242" lon="-20.364368439">
<ele>32.7</ele>
<time>2012-07-27T12:30:53Z</time>
<speed>0.010000</speed>
<extensions>
<speed>0.0</speed>
<temp>0.00</temp>
<bpm>0</bpm>
<rpm>0.00</rpm>
</extensions>
</trkpt>
<trkpt lat="63.826267242" lon="-20.368440628">
<ele>32.0</ele>
<time>2012-07-27T12:33:53Z</time>
<speed>4.770000</speed>
<extensions>
<speed>4.8</speed>
<temp>0.00</temp>
<bpm>0</bpm>
<rpm>0.00</rpm>
</extensions>
</trkpt>
<trkpt lat="63.833003998" lon="-20.398281097">
<ele>31.6</ele>
<time>2012-07-27T12:40:38Z</time>
<speed>3.400000</speed>
<extensions>
<speed>3.4</speed>
<temp>0.00</temp>
<bpm>0</bpm>
<rpm>0.00</rpm>
</extensions>
</trkpt>
<trkpt lat="63.833564758" lon="-20.400209427">
<ele>30.0</ele>
<time>2012-07-27T12:41:13Z</time>
<speed>3.270000</speed>
<extensions>
<speed>3.3</speed>
<temp>0.00</temp>
<bpm>0</bpm>
<rpm>0.00</rpm>
</extensions>
</trkpt>
<trkpt lat="63.834320068" lon="-20.401895523">
<ele>27.8</ele>
<time>2012-07-27T12:41:48Z</time>
<speed>3.480000</speed>
<extensions>
<speed>3.5</speed>
<temp>0.00</temp>
<bpm>0</bpm>
<rpm>0.00</rpm>
</extensions>
</trkpt>
<trkpt lat="63.834476471" lon="-20.401870728">
<ele>27.9</ele>
<time>2012-07-27T12:41:53Z</time>
<speed>3.460000</speed>
<extensions>
<speed>3.5</speed>
<temp>0.00</temp>
<bpm>0</bpm>
<rpm>0.00</rpm>
</extensions>
</trkpt>
<trkpt lat="63.834712982" lon="-20.401100159">
<ele>29.9</ele>
<time>2012-07-27T12:42:18Z</time>
<speed>2.160000</speed>
<extensions>
<speed>2.2</speed>
<temp>0.00</temp>
<bpm>0</bpm>
<rpm>0.00</rpm>
</extensions>
</trkpt>
<trkpt lat="63.834522247" lon="-20.400909424">
<ele>29.3</ele>
<time>2012-07-27T12:59:28Z</time>
<extensions>
<speed>0.0</speed>
<temp>0.00</temp>
<bpm>0</bpm>
<rpm>0.00</rpm>
</extensions>
</trkpt>
<trkpt lat="63.835105896" lon="-20.402084351">
<ele>28.5</ele>
<time>2012-07-27T13:15:38Z</time>
<speed>1.710000</speed>
<extensions>
<speed>1.7</speed>
<temp>0.00</temp>
<bpm>0</bpm>
<rpm>0.00</rpm>
</extensions>
</trkpt>
<trkpt lat="63.834663391" lon="-20.401905060">
<ele>28.1</ele>
<time>2012-07-27T13:15:58Z</time>
<speed>3.390000</speed>
<extensions>
<speed>3.4</speed>
<temp>0.00</temp>
<bpm>0</bpm>
<rpm>0.00</rpm>
</extensions>
</trkpt>
<trkpt lat="63.834659576" lon="-20.402221680">
<ele>28.0</ele>
<time>2012-07-27T13:16:03Z</time>
<speed>3.820000</speed>
<extensions>
<speed>3.8</speed>
<temp>0.00</temp>
<bpm>0</bpm>
<rpm>0.00</rpm>
</extensions>
</trkpt>
<trkpt lat="63.835308075" lon="-20.402832031">
<ele>27.3</ele>
<time>2012-07-27T13:16:23Z</time>
<speed>4.190000</speed>
<extensions>
<speed>4.2</speed>
<temp>0.00</temp>
<bpm>0</bpm>
<rpm>0.00</rpm>
</extensions>
</trkpt>
<trkpt lat="63.836627960" lon="-20.405242920">
<ele>24.7</ele>
<time>2012-07-27T13:17:23Z</time>
<speed>3.220000</speed>
<extensions>
<speed>3.2</speed>
<temp>0.00</temp>
<bpm>0</bpm>
<rpm>0.00</rpm>
</extensions>
</trkpt>
<trkpt lat="63.837493896" lon="-20.406250000">
<ele>25.7</ele>
<time>2012-07-27T13:17:58Z</time>
<speed>3.260000</speed>
<extensions>
<speed>3.3</speed>
<temp>0.00</temp>
<bpm>0</bpm>
<rpm>0.00</rpm>
</extensions>
</trkpt>
<trkpt lat="63.841415405" lon="-20.407787323">
<ele>37.9</ele>
<time>2012-07-27T13:20:38Z</time>
<speed>3.030000</speed>
<extensions>
<speed>3.0</speed>
<temp>0.00</temp>
<bpm>0</bpm>
<rpm>0.00</rpm>
</extensions>
</trkpt>
<trkpt lat="63.842464447" lon="-20.408576965">
<ele>37.6</ele>
<time>2012-07-27T13:21:18Z</time>
<speed>3.840000</speed>
<extensions>
<speed>3.8</speed>
<temp>0.00</temp>
<bpm>0</bpm>
<rpm>0.00</rpm>
</extensions>
</trkpt>
<trkpt lat="63.843681335" lon="-20.410087585">
<ele>38.0</ele>
<time>2012-07-27T13:22:03Z</time>
<speed>3.490000</speed>
<extensions>
<speed>3.5</speed>
<temp>0.00</temp>
<bpm>0</bpm>
<rpm>0.00</rpm>
</extensions>
</trkpt>
<trkpt lat="63.846431732" lon="-20.414398193">
<ele>37.0</ele>
<time>2012-07-27T13:23:48Z</time>
<speed>3.790000</speed>
<extensions>
<speed>3.8</speed>
<temp>0.00</temp>
<bpm>0</bpm>
<rpm>0.00</rpm>
</extensions>
</trkpt>
<trkpt lat="63.849060059" lon="-20.419620514">
<ele>43.6</ele>
<time>2012-07-27T13:25:38Z</time>
<speed>4.000000</speed>
<extensions>
<speed>4.0</speed>
<temp>0.00</temp>
<bpm>0</bpm>
<rpm>0.00</rpm>
</extensions>
</trkpt>
<trkpt lat="63.865306854" lon="-20.444322586">
<ele>37.8</ele>
<time>2012-07-27T13:35:33Z</time>
<speed>0.070000</speed>
<extensions>
<speed>0.1</speed>
<temp>0.00</temp>
<bpm>0</bpm>
<rpm>0.00</rpm>
</extensions>
</trkpt>
<trkpt lat="63.866394043" lon="-20.447353363">
<ele>36.3</ele>
<time>2012-07-27T13:36:58Z</time>
<speed>4.680000</speed>
<extensions>
<speed>4.7</speed>
<temp>0.00</temp>
<bpm>0</bpm>
<rpm>0.00</rpm>
</extensions>
</trkpt>
<trkpt lat="63.867027283" lon="-20.450700760">
<ele>35.0</ele>
<time>2012-07-27T13:37:33Z</time>
<speed>4.970000</speed>
<extensions>
<speed>5.0</speed>
<temp>0.00</temp>
<bpm>0</bpm>
<rpm>0.00</rpm>
</extensions>
</trkpt>
<trkpt lat="63.867340088" lon="-20.462112427">
<ele>45.6</ele>
<time>2012-07-27T13:40:08Z</time>
<speed>5.050000</speed>
<extensions>
<speed>5.1</speed>
<temp>0.00</temp>
<bpm>0</bpm>
<rpm>0.00</rpm>
</extensions>
</trkpt>
<trkpt lat="63.867782593" lon="-20.465808868">
<ele>47.1</ele>
<time>2012-07-27T13:40:48Z</time>
<speed>4.480000</speed>
<extensions>
<speed>4.5</speed>
<temp>0.00</temp>
<bpm>0</bpm>
<rpm>0.00</rpm>
</extensions>
</trkpt>
<trkpt lat="63.888591766" lon="-20.531761169">
<ele>58.1</ele>
<time>2012-07-27T13:55:28Z</time>
<speed>3.510000</speed>
<extensions>
<speed>3.5</speed>
<temp>0.00</temp>
<bpm>0</bpm>
<rpm>0.00</rpm>
</extensions>
</trkpt>
<trkpt lat="63.888782501" lon="-20.531881332">
<ele>58.4</ele>
<time>2012-07-27T13:59:23Z</time>
<extensions>
<speed>0.0</speed>
<temp>0.00</temp>
<bpm>0</bpm>
<rpm>0.00</rpm>
</extensions>
</trkpt>
<trkpt lat="63.890380859" lon="-20.539453506">
<ele>56.9</ele>
<time>2012-07-27T14:26:33Z</time>
<speed>4.610000</speed>
<extensions>
<speed>4.6</speed>
<temp>0.00</temp>
<bpm>0</bpm>
<rpm>0.00</rpm>
</extensions>
</trkpt>
<trkpt lat="63.891849518" lon="-20.549434662">
<ele>38.3</ele>
<time>2012-07-27T14:27:43Z</time>
<speed>7.620000</speed>
<extensions>
<speed>7.6</speed>
<temp>0.00</temp>
<bpm>0</bpm>
<rpm>0.00</rpm>
</extensions>
</trkpt>
<trkpt lat="63.892826080" lon="-20.554456711">
<ele>28.7</ele>
<time>2012-07-27T14:28:18Z</time>
<speed>7.950000</speed>
<extensions>
<speed>8.0</speed>
<temp>0.00</temp>
<bpm>0</bpm>
<rpm>0.00</rpm>
</extensions>
</trkpt>
<trkpt lat="63.900108337" lon="-20.586328506">
<ele>19.0</ele>
<time>2012-07-27T14:34:53Z</time>
<speed>3.440000</speed>
<extensions>
<speed>3.4</speed>
<temp>0.00</temp>
<bpm>0</bpm>
<rpm>0.00</rpm>
</extensions>
</trkpt>
<trkpt lat="63.900722504" lon="-20.587907791">
<ele>19.5</ele>
<time>2012-07-27T14:35:23Z</time>
<speed>3.450000</speed>
<extensions>
<speed>3.5</speed>
<temp>0.00</temp>
<bpm>0</bpm>
<rpm>0.00</rpm>
</extensions>
</trkpt>
<trkpt lat="63.901523590" lon="-20.589105606">
<ele>20.8</ele>
<time>2012-07-27T14:35:58Z</time>
<speed>2.090000</speed>
<extensions>
<speed>2.1</speed>
<temp>0.00</temp>
<bpm>0</bpm>
<rpm>0.00</rpm>
</extensions>
</trkpt>
<trkpt lat="63.902130127" lon="-20.589584351">
<ele>23.1</ele>
<time>2012-07-27T14:37:48Z</time>
<speed>0.390000</speed>
<extensions>
<speed>0.4</speed>
<temp>0.00</temp>
<bpm>0</bpm>
<rpm>0.00</rpm>
</extensions>
</trkpt>
<trkpt lat="63.905094147" lon="-20.590698242">
<ele>40.9</ele>
<time>2012-07-27T14:41:03Z</time>
<speed>2.670000</speed>
<extensions>
<speed>2.7</speed>
<temp>0.00</temp>
<bpm>0</bpm>
<rpm>0.00</rpm>
</extensions>
</trkpt>
<trkpt lat="63.907390594" lon="-20.593420029">
<ele>47.2</ele>
<time>2012-07-27T14:43:08Z</time>
<speed>1.800000</speed>
<extensions>
<speed>1.8</speed>
<temp>0.00</temp>
<bpm>0</bpm>
<rpm>0.00</rpm>
</extensions>
</trkpt>
<trkpt lat="63.909309387" lon="-20.596483231">
<ele>59.6</ele>
<time>2012-07-27T14:45:18Z</time>
<speed>3.010000</speed>
<extensions>
<speed>3.0</speed>
<temp>0.00</temp>
<bpm>0</bpm>
<rpm>0.00</rpm>
</extensions>
</trkpt>
<trkpt lat="63.910438538" lon="-20.599679947">
<ele>64.1</ele>
<time>2012-07-27T14:46:28Z</time>
<speed>2.790000</speed>
<extensions>
<speed>2.8</speed>
<temp>0.00</temp>
<bpm>0</bpm>
<rpm>0.00</rpm>
</extensions>
</trkpt>
<trkpt lat="63.912040710" lon="-20.608131409">
<ele>64.7</ele>
<time>2012-07-27T14:48:23Z</time>
<speed>4.850000</speed>
<extensions>
<speed>4.8</speed>
<temp>0.00</temp>
<bpm>0</bpm>
<rpm>0.00</rpm>
</extensions>
</trkpt>
<trkpt lat="63.917972565" lon="-20.642213821">
<ele>55.1</ele>
<time>2012-07-27T14:54:43Z</time>
<speed>3.110000</speed>
<extensions>
<speed>3.1</speed>
<temp>0.00</temp>
<bpm>0</bpm>
<rpm>0.00</rpm>
</extensions>
</trkpt>
<trkpt lat="63.919235229" lon="-20.647340775">
<ele>61.4</ele>
<time>2012-07-27T14:56:13Z</time>
<speed>3.440000</speed>
<extensions>
<speed>3.4</speed>
<temp>0.00</temp>
<bpm>0</bpm>
<rpm>0.00</rpm>
</extensions>
</trkpt>
<trkpt lat="63.920307159" lon="-20.650678635">
<ele>60.4</ele>
<time>2012-07-27T14:57:18Z</time>
<speed>2.880000</speed>
<extensions>
<speed>2.9</speed>
<temp>0.00</temp>
<bpm>0</bpm>
<rpm>0.00</rpm>
</extensions>
</trkpt>
<trkpt lat="63.921699524" lon="-20.654163361">
<ele>60.6</ele>
<time>2012-07-27T14:58:33Z</time>
<speed>3.240000</speed>
<extensions>
<speed>3.2</speed>
<temp>0.00</temp>
<bpm>0</bpm>
<rpm>0.00</rpm>
</extensions>
</trkpt>
<trkpt lat="63.923259735" lon="-20.657281876">
<ele>59.9</ele>
<time>2012-07-27T14:59:53Z</time>
<speed>2.590000</speed>
<extensions>
<speed>2.6</speed>
<temp>0.00</temp>
<bpm>0</bpm>
<rpm>0.00</rpm>
</extensions>
</trkpt>
<trkpt lat="63.926433563" lon="-20.661766052">
<ele>55.9</ele>
<time>2012-07-27T15:02:28Z</time>
<speed>2.840000</speed>
<extensions>
<speed>2.8</speed>
<temp>0.00</temp>
<bpm>0</bpm>
<rpm>0.00</rpm>
</extensions>
</trkpt>
<trkpt lat="63.933399200" lon="-20.668262482">
<ele>44.0</ele>
<time>2012-07-27T15:07:13Z</time>
<speed>4.070000</speed>
<extensions>
<speed>4.1</speed>
<temp>0.00</temp>
<bpm>0</bpm>
<rpm>0.00</rpm>
</extensions>
</trkpt>
<trkpt lat="63.935401917" lon="-20.669376373">
<ele>44.7</ele>
<time>2012-07-27T15:08:13Z</time>
<speed>3.900000</speed>
<extensions>
<speed>3.9</speed>
<temp>0.00</temp>
<bpm>0</bpm>
<rpm>0.00</rpm>
</extensions>
</trkpt>
<trkpt lat="63.939563751" lon="-20.670692444">
<ele>44.9</ele>
<time>2012-07-27T15:10:08Z</time>
<speed>3.910000</speed>
<extensions>
<speed>3.9</speed>
<temp>0.00</temp>
<bpm>0</bpm>
<rpm>0.00</rpm>
</extensions>
</trkpt>
<trkpt lat="63.941879272" lon="-20.672891617">
<ele>44.5</ele>
<time>2012-07-27T15:11:18Z</time>
<speed>4.060000</speed>
<extensions>
<speed>4.1</speed>
<temp>0.00</temp>
<bpm>0</bpm>
<rpm>0.00</rpm>
</extensions>
</trkpt>
<trkpt lat="63.943279266" lon="-20.675065994">
<ele>43.9</ele>
<time>2012-07-27T15:12:03Z</time>
<speed>4.280000</speed>
<extensions>
<speed>4.3</speed>
<temp>0.00</temp>
<bpm>0</bpm>
<rpm>0.00</rpm>
</extensions>
</trkpt>
<trkpt lat="63.947547913" lon="-20.683458328">
<ele>44.7</ele>
<time>2012-07-27T15:17:03Z</time>
<speed>3.630000</speed>
<extensions>
<speed>3.6</speed>
<temp>0.00</temp>
<bpm>0</bpm>
<rpm>0.00</rpm>
</extensions>
</trkpt>
<trkpt lat="63.951549530" lon="-20.689941406">
<ele>43.2</ele>
<time>2012-07-27T15:19:48Z</time>
<speed>2.710000</speed>
<extensions>
<speed>2.7</speed>
<temp>0.00</temp>
<bpm>0</bpm>
<rpm>0.00</rpm>
</extensions>
</trkpt>
<trkpt lat="63.952533722" lon="-20.692855835">
<ele>45.1</ele>
<time>2012-07-27T15:20:43Z</time>
<speed>3.840000</speed>
<extensions>
<speed>3.8</speed>
<temp>0.00</temp>
<bpm>0</bpm>
<rpm>0.00</rpm>
</extensions>
</trkpt>
<trkpt lat="63.953010559" lon="-20.696287155">
<ele>42.5</ele>
<time>2012-07-27T15:21:28Z</time>
<speed>4.260000</speed>
<extensions>
<speed>4.3</speed>
<temp>0.00</temp>
<bpm>0</bpm>
<rpm>0.00</rpm>
</extensions>
</trkpt>
<trkpt lat="63.952991486" lon="-20.700199127">
<ele>41.4</ele>
<time>2012-07-27T15:22:08Z</time>
<speed>4.680000</speed>
<extensions>
<speed>4.7</speed>
<temp>0.00</temp>
<bpm>0</bpm>
<rpm>0.00</rpm>
</extensions>
</trkpt>
<trkpt lat="63.953170776" lon="-20.701076508">
<ele>42.7</ele>
<time>2012-07-27T15:23:53Z</time>
<extensions>
<speed>0.0</speed>
<temp>0.00</temp>
<bpm>0</bpm>
<rpm>0.00</rpm>
</extensions>
</trkpt>
<trkpt lat="63.952960968" lon="-20.702400208">
<ele>41.3</ele>
<time>2012-07-27T15:29:43Z</time>
<speed>4.280000</speed>
<extensions>
<speed>4.3</speed>
<temp>0.00</temp>
<bpm>0</bpm>
<rpm>0.00</rpm>
</extensions>
</trkpt>
<trkpt lat="63.952739716" lon="-20.713907242">
<ele>41.9</ele>
<time>2012-07-27T15:31:23Z</time>
<speed>5.780000</speed>
<extensions>
<speed>5.8</speed>
<temp>0.00</temp>
<bpm>0</bpm>
<rpm>0.00</rpm>
</extensions>
</trkpt>
<trkpt lat="63.952415466" lon="-20.719385147">
<ele>39.1</ele>
<time>2012-07-27T15:32:08Z</time>
<speed>6.360000</speed>
<extensions>
<speed>6.4</speed>
<temp>0.00</temp>
<bpm>0</bpm>
<rpm>0.00</rpm>
</extensions>
</trkpt>
<trkpt lat="63.948730469" lon="-20.739810944">
<ele>35.2</ele>
<time>2012-07-27T15:34:38Z</time>
<speed>7.500000</speed>
<extensions>
<speed>7.5</speed>
<temp>0.00</temp>
<bpm>0</bpm>
<rpm>0.00</rpm>
</extensions>
</trkpt>
<trkpt lat="63.948272705" lon="-20.743242264">
<ele>34.7</ele>
<time>2012-07-27T15:35:03Z</time>
<speed>6.910000</speed>
<extensions>
<speed>6.9</speed>
<temp>0.00</temp>
<bpm>0</bpm>
<rpm>0.00</rpm>
</extensions>
</trkpt>
<trkpt lat="63.947399139" lon="-20.752470016">
<ele>32.1</ele>
<time>2012-07-27T15:36:13Z</time>
<speed>7.360000</speed>
<extensions>
<speed>7.4</speed>
<temp>0.00</temp>
<bpm>0</bpm>
<rpm>0.00</rpm>
</extensions>
</trkpt>
<trkpt lat="63.945705414" lon="-20.759895325">
<ele>31.2</ele>
<time>2012-07-27T15:37:08Z</time>
<speed>7.900000</speed>
<extensions>
<speed>7.9</speed>
<temp>0.00</temp>
<bpm>0</bpm>
<rpm>0.00</rpm>
</extensions>
</trkpt>
<trkpt lat="63.945175171" lon="-20.766016006">
<ele>33.5</ele>
<time>2012-07-27T15:38:33Z</time>
<speed>5.100000</speed>
<extensions>
<speed>5.1</speed>
<temp>0.00</temp>
<bpm>0</bpm>
<rpm>0.00</rpm>
</extensions>
</trkpt>
<trkpt lat="63.943660736" lon="-20.776376724">
<ele>31.6</ele>
<time>2012-07-27T15:39:58Z</time>
<speed>6.700000</speed>
<extensions>
<speed>6.7</speed>
<temp>0.00</temp>
<bpm>0</bpm>
<rpm>0.00</rpm>
</extensions>
</trkpt>
<trkpt lat="63.943210602" lon="-20.781110764">
<ele>31.3</ele>
<time>2012-07-27T15:40:33Z</time>
<speed>6.490000</speed>
<extensions>
<speed>6.5</speed>
<temp>0.00</temp>
<bpm>0</bpm>
<rpm>0.00</rpm>
</extensions>
</trkpt>
<trkpt lat="63.942710876" lon="-20.821880341">
<ele>29.6</ele>
<time>2012-07-27T15:47:08Z</time>
<speed>6.600000</speed>
<extensions>
<speed>6.6</speed>
<temp>0.00</temp>
<bpm>0</bpm>
<rpm>0.00</rpm>
</extensions>
</trkpt>
<trkpt lat="63.943607330" lon="-20.835409164">
<ele>28.8</ele>
<time>2012-07-27T15:48:58Z</time>
<speed>5.930000</speed>
<extensions>
<speed>5.9</speed>
<temp>0.00</temp>
<bpm>0</bpm>
<rpm>0.00</rpm>
</extensions>
</trkpt>
<trkpt lat="63.943737030" lon="-20.845142365">
<ele>28.0</ele>
<time>2012-07-27T15:50:13Z</time>
<speed>6.340000</speed>
<extensions>
<speed>6.3</speed>
<temp>0.00</temp>
<bpm>0</bpm>
<rpm>0.00</rpm>
</extensions>
</trkpt>
<trkpt lat="63.943397522" lon="-20.864730835">
<ele>26.7</ele>
<time>2012-07-27T15:52:43Z</time>
<speed>6.360000</speed>
<extensions>
<speed>6.4</speed>
<temp>0.00</temp>
<bpm>0</bpm>
<rpm>0.00</rpm>
</extensions>
</trkpt>
<trkpt lat="63.941719055" lon="-20.935049057">
<ele>22.5</ele>
<time>2012-07-27T16:03:13Z</time>
<speed>5.050000</speed>
<extensions>
<speed>5.1</speed>
<temp>0.00</temp>
<bpm>0</bpm>
<rpm>0.00</rpm>
</extensions>
</trkpt>
<trkpt lat="63.941440582" lon="-20.941698074">
<ele>22.4</ele>
<time>2012-07-27T16:04:13Z</time>
<speed>5.000000</speed>
<extensions>
<speed>5.0</speed>
<temp>0.00</temp>
<bpm>0</bpm>
<rpm>0.00</rpm>
</extensions>
</trkpt>
<trkpt lat="63.938854218" lon="-20.975257874">
<ele>20.1</ele>
<time>2012-07-27T16:10:08Z</time>
<speed>0.010000</speed>
<extensions>
<speed>0.0</speed>
<temp>0.00</temp>
<bpm>0</bpm>
<rpm>0.00</rpm>
</extensions>
</trkpt>
<trkpt lat="63.938560486" lon="-20.975063324">
<ele>20.6</ele>
<time>2012-07-27T16:12:23Z</time>
<speed>2.160000</speed>
<extensions>
<speed>2.2</speed>
<temp>0.00</temp>
<bpm>0</bpm>
<rpm>0.00</rpm>
</extensions>
</trkpt>
<trkpt lat="63.938415527" lon="-20.974315643">
<ele>21.3</ele>
<time>2012-07-27T16:32:58Z</time>
<speed>0.010000</speed>
<extensions>
<speed>0.0</speed>
<temp>0.00</temp>
<bpm>0</bpm>
<rpm>0.00</rpm>
</extensions>
</trkpt>
<trkpt lat="63.938632965" lon="-20.974002838">
<ele>21.0</ele>
<time>2012-07-27T16:35:28Z</time>
<speed>2.770000</speed>
<extensions>
<speed>2.8</speed>
<temp>0.00</temp>
<bpm>0</bpm>
<rpm>0.00</rpm>
</extensions>
</trkpt>
<trkpt lat="63.938625336" lon="-20.973461151">
<ele>21.5</ele>
<time>2012-07-27T16:35:38Z</time>
<speed>3.490000</speed>
<extensions>
<speed>3.5</speed>
<temp>0.00</temp>
<bpm>0</bpm>
<rpm>0.00</rpm>
</extensions>
</trkpt>
<trkpt lat="63.937915802" lon="-20.972782135">
<ele>20.2</ele>
<time>2012-07-27T16:36:03Z</time>
<speed>2.600000</speed>
<extensions>
<speed>2.6</speed>
<temp>0.00</temp>
<bpm>0</bpm>
<rpm>0.00</rpm>
</extensions>
</trkpt>
<trkpt lat="63.937915802" lon="-20.972505569">
<ele>20.3</ele>
<time>2012-07-27T16:36:08Z</time>
<speed>2.480000</speed>
<extensions>
<speed>2.5</speed>
<temp>0.00</temp>
<bpm>0</bpm>
<rpm>0.00</rpm>
</extensions>
</trkpt>
<trkpt lat="63.938022614" lon="-20.971845627">
<ele>20.1</ele>
<time>2012-07-27T16:36:23Z</time>
<speed>3.250000</speed>
<extensions>
<speed>3.2</speed>
<temp>0.00</temp>
<bpm>0</bpm>
<rpm>0.00</rpm>
</extensions>
</trkpt>
<trkpt lat="63.938175201" lon="-20.971965790">
<ele>20.2</ele>
<time>2012-07-27T16:36:28Z</time>
<speed>3.500000</speed>
<extensions>
<speed>3.5</speed>
<temp>0.00</temp>
<bpm>0</bpm>
<rpm>0.00</rpm>
</extensions>
</trkpt>
<trkpt lat="63.938938141" lon="-20.973081589">
<ele>19.8</ele>
<time>2012-07-27T16:36:58Z</time>
<speed>3.220000</speed>
<extensions>
<speed>3.2</speed>
<temp>0.00</temp>
<bpm>0</bpm>
<rpm>0.00</rpm>
</extensions>
</trkpt>
<trkpt lat="63.938953400" lon="-20.973434448">
<ele>19.8</ele>
<time>2012-07-27T16:37:03Z</time>
<speed>3.800000</speed>
<extensions>
<speed>3.8</speed>
<temp>0.00</temp>
<bpm>0</bpm>
<rpm>0.00</rpm>
</extensions>
</trkpt>
<trkpt lat="63.938549042" lon="-20.977962494">
<ele>19.1</ele>
<time>2012-07-27T16:37:58Z</time>
<speed>4.560000</speed>
<extensions>
<speed>4.6</speed>
<temp>0.00</temp>
<bpm>0</bpm>
<rpm>0.00</rpm>
</extensions>
</trkpt>
<trkpt lat="63.937194824" lon="-20.985477448">
<ele>18.4</ele>
<time>2012-07-27T16:39:23Z</time>
<speed>3.640000</speed>
<extensions>
<speed>3.6</speed>
<temp>0.00</temp>
<bpm>0</bpm>
<rpm>0.00</rpm>
</extensions>
</trkpt>
<trkpt lat="63.937191010" lon="-20.992725372">
<ele>19.4</ele>
<time>2012-07-27T16:41:58Z</time>
<speed>3.300000</speed>
<extensions>
<speed>3.3</speed>
<temp>0.00</temp>
<bpm>0</bpm>
<rpm>0.00</rpm>
</extensions>
</trkpt>
<trkpt lat="63.937328339" lon="-20.993068695">
<ele>18.4</ele>
<time>2012-07-27T16:42:08Z</time>
<speed>0.720000</speed>
<extensions>
<speed>0.7</speed>
<temp>0.00</temp>
<bpm>0</bpm>
<rpm>0.00</rpm>
</extensions>
</trkpt>
<trkpt lat="63.937202454" lon="-20.993558884">
<ele>18.5</ele>
<time>2012-07-27T16:42:28Z</time>
<speed>3.630000</speed>
<extensions>
<speed>3.6</speed>
<temp>0.00</temp>
<bpm>0</bpm>
<rpm>0.00</rpm>
</extensions>
</trkpt>
<trkpt lat="63.937263489" lon="-21.000377655">
<ele>17.5</ele>
<time>2012-07-27T16:44:18Z</time>
<speed>2.900000</speed>
<extensions>
<speed>2.9</speed>
<temp>0.00</temp>
<bpm>0</bpm>
<rpm>0.00</rpm>
</extensions>
</trkpt>
<trkpt lat="63.937477112" lon="-21.003190994">
<ele>18.0</ele>
<time>2012-07-27T16:45:28Z</time>
<speed>1.440000</speed>
<extensions>
<speed>1.4</speed>
<temp>0.00</temp>
<bpm>0</bpm>
<rpm>0.00</rpm>
</extensions>
</trkpt>
<trkpt lat="63.937694550" lon="-21.003816605">
<ele>16.3</ele>
<time>2012-07-27T16:45:48Z</time>
<speed>0.150000</speed>
<extensions>
<speed>0.2</speed>
<temp>0.00</temp>
<bpm>0</bpm>
<rpm>0.00</rpm>
</extensions>
</trkpt>
<trkpt lat="63.937492371" lon="-21.002883911">
<ele>18.0</ele>
<time>2012-07-27T16:47:08Z</time>
<speed>3.330000</speed>
<extensions>
<speed>3.3</speed>
<temp>0.00</temp>
<bpm>0</bpm>
<rpm>0.00</rpm>
</extensions>
</trkpt>
<trkpt lat="63.937374115" lon="-21.000854492">
<ele>17.4</ele>
<time>2012-07-27T16:47:38Z</time>
<speed>2.160000</speed>
<extensions>
<speed>2.2</speed>
<temp>0.00</temp>
<bpm>0</bpm>
<rpm>0.00</rpm>
</extensions>
</trkpt>
<trkpt lat="63.937507629" lon="-21.000617981">
<ele>17.1</ele>
<time>2012-07-27T17:10:58Z</time>
<speed>0.010000</speed>
<extensions>
<speed>0.0</speed>
<temp>0.00</temp>
<bpm>0</bpm>
<rpm>0.00</rpm>
</extensions>
</trkpt>
<trkpt lat="63.937381744" lon="-21.000864029">
<ele>17.4</ele>
<time>2012-07-27T17:37:43Z</time>
<speed>0.020000</speed>
<extensions>
<speed>0.0</speed>
<temp>0.00</temp>
<bpm>0</bpm>
<rpm>0.00</rpm>
</extensions>
</trkpt>
<trkpt lat="63.937397003" lon="-21.000616074">
<ele>17.3</ele>
<time>2012-07-27T18:07:48Z</time>
<speed>0.030000</speed>
<extensions>
<speed>0.0</speed>
<temp>0.00</temp>
<bpm>0</bpm>
<rpm>0.00</rpm>
</extensions>
</trkpt>
<trkpt lat="63.937454224" lon="-21.002744675">
<ele>18.1</ele>
<time>2012-07-27T18:10:03Z</time>
<speed>0.220000</speed>
<extensions>
<speed>0.2</speed>
<temp>0.00</temp>
<bpm>0</bpm>
<rpm>0.00</rpm>
</extensions>
</trkpt>
<trkpt lat="63.937282562" lon="-21.002706528">
<ele>18.4</ele>
<time>2012-07-27T18:10:18Z</time>
<speed>2.350000</speed>
<extensions>
<speed>2.4</speed>
<temp>0.00</temp>
<bpm>0</bpm>
<rpm>0.00</rpm>
</extensions>
</trkpt>
<trkpt lat="63.937160492" lon="-21.001674652">
<ele>18.2</ele>
<time>2012-07-27T18:11:23Z</time>
<speed>1.970000</speed>
<extensions>
<speed>2.0</speed>
<temp>0.00</temp>
<bpm>0</bpm>
<rpm>0.00</rpm>
</extensions>
</trkpt>
<trkpt lat="63.937332153" lon="-21.001810074">
<ele>18.1</ele>
<time>2012-07-27T18:11:58Z</time>
<speed>3.540000</speed>
<extensions>
<speed>3.5</speed>
<temp>0.00</temp>
<bpm>0</bpm>
<rpm>0.00</rpm>
</extensions>
</trkpt>
<trkpt lat="63.937591553" lon="-21.003833771">
<ele>16.6</ele>
<time>2012-07-27T18:12:28Z</time>
<speed>4.100000</speed>
<extensions>
<speed>4.1</speed>
<temp>0.00</temp>
<bpm>0</bpm>
<rpm>0.00</rpm>
</extensions>
</trkpt>
<trkpt lat="63.935161591" lon="-21.009340286">
<ele>15.8</ele>
<time>2012-07-27T18:15:03Z</time>
<speed>4.500000</speed>
<extensions>
<speed>4.5</speed>
<temp>0.00</temp>
<bpm>0</bpm>
<rpm>0.00</rpm>
</extensions>
</trkpt>
<trkpt lat="63.934368134" lon="-21.011560440">
<ele>16.1</ele>
<time>2012-07-27T18:15:43Z</time>
<speed>4.110000</speed>
<extensions>
<speed>4.1</speed>
<temp>0.00</temp>
<bpm>0</bpm>
<rpm>0.00</rpm>
</extensions>
</trkpt>
<trkpt lat="63.933380127" lon="-21.013368607">
<ele>16.7</ele>
<time>2012-07-27T18:16:18Z</time>
<speed>4.710000</speed>
<extensions>
<speed>4.7</speed>
<temp>0.00</temp>
<bpm>0</bpm>
<rpm>0.00</rpm>
</extensions>
</trkpt>
<trkpt lat="63.931140900" lon="-21.018503189">
<ele>16.6</ele>
<time>2012-07-27T18:17:58Z</time>
<speed>4.880000</speed>
<extensions>
<speed>4.9</speed>
<temp>0.00</temp>
<bpm>0</bpm>
<rpm>0.00</rpm>
</extensions>
</trkpt>
<trkpt lat="63.918041229" lon="-21.040945053">
<ele>12.3</ele>
<time>2012-07-27T18:22:48Z</time>
<speed>7.230000</speed>
<extensions>
<speed>7.2</speed>
<temp>0.00</temp>
<bpm>0</bpm>
<rpm>0.00</rpm>
</extensions>
</trkpt>
<trkpt lat="63.906051636" lon="-21.063875198">
<ele>10.8</ele>
<time>2012-07-27T18:26:43Z</time>
<speed>5.930000</speed>
<extensions>
<speed>5.9</speed>
<temp>0.00</temp>
<bpm>0</bpm>
<rpm>0.00</rpm>
</extensions>
</trkpt>
<trkpt lat="63.898090363" lon="-21.072105408">
<ele>9.2</ele>
<time>2012-07-27T18:28:53Z</time>
<speed>7.060000</speed>
<extensions>
<speed>7.1</speed>
<temp>0.00</temp>
<bpm>0</bpm>
<rpm>0.00</rpm>
</extensions>
</trkpt>
<trkpt lat="63.888931274" lon="-21.079658508">
<ele>8.0</ele>
<time>2012-07-27T18:31:33Z</time>
<speed>5.970000</speed>
<extensions>
<speed>6.0</speed>
<temp>0.00</temp>
<bpm>0</bpm>
<rpm>0.00</rpm>
</extensions>
</trkpt>
<trkpt lat="63.876087189" lon="-21.092803955">
<ele>6.1</ele>
<time>2012-07-27T18:35:28Z</time>
<speed>6.970000</speed>
<extensions>
<speed>7.0</speed>
<temp>0.00</temp>
<bpm>0</bpm>
<rpm>0.00</rpm>
</extensions>
</trkpt>
<trkpt lat="63.863380432" lon="-21.106357574">
<ele>4.2</ele>
<time>2012-07-27T18:39:23Z</time>
<speed>6.780000</speed>
<extensions>
<speed>6.8</speed>
<temp>0.00</temp>
<bpm>0</bpm>
<rpm>0.00</rpm>
</extensions>
</trkpt>
<trkpt lat="63.860996246" lon="-21.109333038">
<ele>3.8</ele>
<time>2012-07-27T18:42:38Z</time>
<speed>4.220000</speed>
<extensions>
<speed>4.2</speed>
<temp>0.00</temp>
<bpm>0</bpm>
<rpm>0.00</rpm>
</extensions>
</trkpt>
<trkpt lat="63.860153198" lon="-21.111572266">
<ele>3.2</ele>
<time>2012-07-27T18:43:03Z</time>
<speed>6.660000</speed>
<extensions>
<speed>6.7</speed>
<temp>0.00</temp>
<bpm>0</bpm>
<rpm>0.00</rpm>
</extensions>
</trkpt>
<trkpt lat="63.859657288" lon="-21.114099503">
<ele>3.0</ele>
<time>2012-07-27T18:43:23Z</time>
<speed>7.000000</speed>
<extensions>
<speed>7.0</speed>
<temp>0.00</temp>
<bpm>0</bpm>
<rpm>0.00</rpm>
</extensions>
</trkpt>
<trkpt lat="63.859539032" lon="-21.117603302">
<ele>3.1</ele>
<time>2012-07-27T18:43:48Z</time>
<speed>7.310000</speed>
<extensions>
<speed>7.3</speed>
<temp>0.00</temp>
<bpm>0</bpm>
<rpm>0.00</rpm>
</extensions>
</trkpt>
<trkpt lat="63.860080719" lon="-21.121276855">
<ele>2.6</ele>
<time>2012-07-27T18:44:23Z</time>
<speed>4.630000</speed>
<extensions>
<speed>4.6</speed>
<temp>0.00</temp>
<bpm>0</bpm>
<rpm>0.00</rpm>
</extensions>
</trkpt>
<trkpt lat="63.864536285" lon="-21.139034271">
<ele>2.2</ele>
<time>2012-07-27T18:48:48Z</time>
<speed>3.740000</speed>
<extensions>
<speed>3.7</speed>
<temp>0.00</temp>
<bpm>0</bpm>
<rpm>0.00</rpm>
</extensions>
</trkpt>
<trkpt lat="63.870235443" lon="-21.160295486">
<ele>1.8</ele>
<time>2012-07-27T18:53:03Z</time>
<speed>4.420000</speed>
<extensions>
<speed>4.4</speed>
<temp>0.00</temp>
<bpm>0</bpm>
<rpm>0.00</rpm>
</extensions>
</trkpt>
<trkpt lat="63.876186371" lon="-21.185747147">
<ele>1.8</ele>
<time>2012-07-27T18:58:13Z</time>
<speed>3.750000</speed>
<extensions>
<speed>3.8</speed>
<temp>0.00</temp>
<bpm>0</bpm>
<rpm>0.00</rpm>
</extensions>
</trkpt>
<trkpt lat="63.877140045" lon="-21.188627243">
<ele>1.6</ele>
<time>2012-07-27T18:59:28Z</time>
<speed>3.950000</speed>
<extensions>
<speed>4.0</speed>
<temp>0.00</temp>
<bpm>0</bpm>
<rpm>0.00</rpm>
</extensions>
</trkpt>
<trkpt lat="63.879310608" lon="-21.193092346">
<ele>2.0</ele>
<time>2012-07-27T19:02:38Z</time>
<speed>3.460000</speed>
<extensions>
<speed>3.5</speed>
<temp>0.00</temp>
<bpm>0</bpm>
<rpm>0.00</rpm>
</extensions>
</trkpt>
<trkpt lat="63.880249023" lon="-21.197099686">
<ele>1.8</ele>
<time>2012-07-27T19:03:33Z</time>
<speed>4.640000</speed>
<extensions>
<speed>4.6</speed>
<temp>0.00</temp>
<bpm>0</bpm>
<rpm>0.00</rpm>
</extensions>
</trkpt>
<trkpt lat="63.880443573" lon="-21.200340271">
<ele>2.5</ele>
<time>2012-07-27T19:04:13Z</time>
<speed>2.230000</speed>
<extensions>
<speed>2.2</speed>
<temp>0.00</temp>
<bpm>0</bpm>
<rpm>0.00</rpm>
</extensions>
</trkpt>
<trkpt lat="63.880184174" lon="-21.203691483">
<ele>3.4</ele>
<time>2012-07-27T19:07:08Z</time>
<speed>3.860000</speed>
<extensions>
<speed>3.9</speed>
<temp>0.00</temp>
<bpm>0</bpm>
<rpm>0.00</rpm>
</extensions>
</trkpt>
<trkpt lat="63.878383636" lon="-21.213073730">
<ele>0.7</ele>
<time>2012-07-27T19:08:43Z</time>
<speed>5.870000</speed>
<extensions>
<speed>5.9</speed>
<temp>0.00</temp>
<bpm>0</bpm>
<rpm>0.00</rpm>
</extensions>
</trkpt>
<trkpt lat="63.878032684" lon="-21.217313766">
<ele>4.9</ele>
<time>2012-07-27T19:09:23Z</time>
<speed>0.670000</speed>
<extensions>
<speed>0.7</speed>
<temp>0.00</temp>
<bpm>0</bpm>
<rpm>0.00</rpm>
</extensions>
</trkpt>
<trkpt lat="63.877731323" lon="-21.217288971">
<ele>6.3</ele>
<time>2012-07-27T19:16:03Z</time>
<extensions>
<speed>0.0</speed>
<temp>0.00</temp>
<bpm>0</bpm>
<rpm>0.00</rpm>
</extensions>
</trkpt>
<trkpt lat="63.878021240" lon="-21.217308044">
<ele>5.1</ele>
<time>2012-07-27T19:18:38Z</time>
<speed>0.740000</speed>
<extensions>
<speed>0.7</speed>
<temp>0.00</temp>
<bpm>0</bpm>
<rpm>0.00</rpm>
</extensions>
</trkpt>
<trkpt lat="63.878337860" lon="-21.220863342">
<ele>6.7</ele>
<time>2012-07-27T19:19:38Z</time>
<speed>3.810000</speed>
<extensions>
<speed>3.8</speed>
<temp>0.00</temp>
<bpm>0</bpm>
<rpm>0.00</rpm>
</extensions>
</trkpt>
<trkpt lat="63.879753113" lon="-21.226615906">
<ele>4.5</ele>
<time>2012-07-27T19:21:43Z</time>
<speed>4.670000</speed>
<extensions>
<speed>4.7</speed>
<temp>0.00</temp>
<bpm>0</bpm>
<rpm>0.00</rpm>
</extensions>
</trkpt>
<trkpt lat="63.882171631" lon="-21.240322113">
<ele>4.5</ele>
<time>2012-07-27T19:25:08Z</time>
<speed>4.910000</speed>
<extensions>
<speed>4.9</speed>
<temp>0.00</temp>
<bpm>0</bpm>
<rpm>0.00</rpm>
</extensions>
</trkpt>
<trkpt lat="63.884784698" lon="-21.252885818">
<ele>4.3</ele>
<time>2012-07-27T19:27:53Z</time>
<speed>3.990000</speed>
<extensions>
<speed>4.0</speed>
<temp>0.00</temp>
<bpm>0</bpm>
<rpm>0.00</rpm>
</extensions>
</trkpt>
<trkpt lat="63.885681152" lon="-21.258205414">
<ele>4.7</ele>
<time>2012-07-27T19:28:53Z</time>
<speed>4.450000</speed>
<extensions>
<speed>4.5</speed>
<temp>0.00</temp>
<bpm>0</bpm>
<rpm>0.00</rpm>
</extensions>
</trkpt>
<trkpt lat="63.886295319" lon="-21.263107300">
<ele>2.5</ele>
<time>2012-07-27T19:29:48Z</time>
<speed>4.740000</speed>
<extensions>
<speed>4.7</speed>
<temp>0.00</temp>
<bpm>0</bpm>
<rpm>0.00</rpm>
</extensions>
</trkpt>
<trkpt lat="63.886749268" lon="-21.268402100">
<ele>4.5</ele>
<time>2012-07-27T19:30:48Z</time>
<speed>4.570000</speed>
<extensions>
<speed>4.6</speed>
<temp>0.00</temp>
<bpm>0</bpm>
<rpm>0.00</rpm>
</extensions>
</trkpt>
<trkpt lat="63.887660980" lon="-21.284589767">
<ele>3.6</ele>
<time>2012-07-27T19:33:33Z</time>
<speed>5.220000</speed>
<extensions>
<speed>5.2</speed>
<temp>0.00</temp>
<bpm>0</bpm>
<rpm>0.00</rpm>
</extensions>
</trkpt>
<trkpt lat="63.889350891" lon="-21.302291870">
<ele>1.3</ele>
<time>2012-07-27T19:36:33Z</time>
<speed>4.940000</speed>
<extensions>
<speed>4.9</speed>
<temp>0.00</temp>
<bpm>0</bpm>
<rpm>0.00</rpm>
</extensions>
</trkpt>
<trkpt lat="63.889839172" lon="-21.309963226">
<ele>1.1</ele>
<time>2012-07-27T19:37:58Z</time>
<speed>3.510000</speed>
<extensions>
<speed>3.5</speed>
<temp>0.00</temp>
<bpm>0</bpm>
<rpm>0.00</rpm>
</extensions>
</trkpt>
<trkpt lat="63.889938354" lon="-21.321771622">
<ele>1.4</ele>
<time>2012-07-27T19:45:23Z</time>
<speed>3.230000</speed>
<extensions>
<speed>3.2</speed>
<temp>0.00</temp>
<bpm>0</bpm>
<rpm>0.00</rpm>
</extensions>
</trkpt>
<trkpt lat="63.889263153" lon="-21.334724426">
<ele>4.3</ele>
<time>2012-07-27T19:48:33Z</time>
<speed>4.530000</speed>
<extensions>
<speed>4.5</speed>
<temp>0.00</temp>
<bpm>0</bpm>
<rpm>0.00</rpm>
</extensions>
</trkpt>
<trkpt lat="63.889289856" lon="-21.337779999">
<ele>6.0</ele>
<time>2012-07-27T19:49:08Z</time>
<speed>4.750000</speed>
<extensions>
<speed>4.8</speed>
<temp>0.00</temp>
<bpm>0</bpm>
<rpm>0.00</rpm>
</extensions>
</trkpt>
<trkpt lat="63.889587402" lon="-21.340726852">
<ele>5.6</ele>
<time>2012-07-27T19:49:43Z</time>
<speed>4.290000</speed>
<extensions>
<speed>4.3</speed>
<temp>0.00</temp>
<bpm>0</bpm>
<rpm>0.00</rpm>
</extensions>
</trkpt>
<trkpt lat="63.890869141" lon="-21.348400116">
<ele>5.9</ele>
<time>2012-07-27T19:51:23Z</time>
<speed>4.840000</speed>
<extensions>
<speed>4.8</speed>
<temp>0.00</temp>
<bpm>0</bpm>
<rpm>0.00</rpm>
</extensions>
</trkpt>
<trkpt lat="63.891033173" lon="-21.351047516">
<ele>5.1</ele>
<time>2012-07-27T19:51:53Z</time>
<speed>3.080000</speed>
<extensions>
<speed>3.1</speed>
<temp>0.00</temp>
<bpm>0</bpm>
<rpm>0.00</rpm>
</extensions>
</trkpt>
<trkpt lat="63.891155243" lon="-21.359327316">
<ele>9.3</ele>
<time>2012-07-27T19:53:43Z</time>
<speed>3.360000</speed>
<extensions>
<speed>3.4</speed>
<temp>0.00</temp>
<bpm>0</bpm>
<rpm>0.00</rpm>
</extensions>
</trkpt>
<trkpt lat="63.891620636" lon="-21.363666534">
<ele>10.3</ele>
<time>2012-07-27T19:54:43Z</time>
<speed>3.230000</speed>
<extensions>
<speed>3.2</speed>
<temp>0.00</temp>
<bpm>0</bpm>
<rpm>0.00</rpm>
</extensions>
</trkpt>
<trkpt lat="63.892013550" lon="-21.364450455">
<ele>10.8</ele>
<time>2012-07-27T19:57:53Z</time>
<speed>0.060000</speed>
<extensions>
<speed>0.1</speed>
<temp>0.00</temp>
<bpm>0</bpm>
<rpm>0.00</rpm>
</extensions>
</trkpt>
<trkpt lat="63.891880035" lon="-21.364233017">
<ele>11.0</ele>
<time>2012-07-27T19:59:33Z</time>
<speed>1.890000</speed>
<extensions>
<speed>1.9</speed>
<temp>0.00</temp>
<bpm>0</bpm>
<rpm>0.00</rpm>
</extensions>
</trkpt>
<trkpt lat="63.891407013" lon="-21.364473343">
<ele>9.4</ele>
<time>2012-07-27T19:59:58Z</time>
<speed>3.510000</speed>
<extensions>
<speed>3.5</speed>
<temp>0.00</temp>
<bpm>0</bpm>
<rpm>0.00</rpm>
</extensions>
</trkpt>
<trkpt lat="63.890045166" lon="-21.365764618">
<ele>6.2</ele>
<time>2012-07-27T20:00:28Z</time>
<speed>8.190000</speed>
<extensions>
<speed>8.2</speed>
<temp>0.00</temp>
<bpm>0</bpm>
<rpm>0.00</rpm>
</extensions>
</trkpt>
<trkpt lat="63.888973236" lon="-21.367500305">
<ele>5.6</ele>
<time>2012-07-27T20:00:48Z</time>
<speed>6.560000</speed>
<extensions>
<speed>6.6</speed>
<temp>0.00</temp>
<bpm>0</bpm>
<rpm>0.00</rpm>
</extensions>
</trkpt>
<trkpt lat="63.886634827" lon="-21.372350693">
<ele>1.2</ele>
<time>2012-07-27T20:01:38Z</time>
<speed>7.180000</speed>
<extensions>
<speed>7.2</speed>
<temp>0.00</temp>
<bpm>0</bpm>
<rpm>0.00</rpm>
</extensions>
</trkpt>
<trkpt lat="63.884059906" lon="-21.375421524">
<ele>2.0</ele>
<time>2012-07-27T20:02:28Z</time>
<speed>5.730000</speed>
<extensions>
<speed>5.7</speed>
<temp>0.00</temp>
<bpm>0</bpm>
<rpm>0.00</rpm>
</extensions>
</trkpt>
<trkpt lat="63.879497528" lon="-21.378860474">
<ele>2.8</ele>
<time>2012-07-27T20:03:48Z</time>
<speed>6.300000</speed>
<extensions>
<speed>6.3</speed>
<temp>0.00</temp>
<bpm>0</bpm>
<rpm>0.00</rpm>
</extensions>
</trkpt>
<trkpt lat="63.873832703" lon="-21.381597519">
<ele>3.2</ele>
<time>2012-07-27T20:05:28Z</time>
<speed>7.080000</speed>
<extensions>
<speed>7.1</speed>
<temp>0.00</temp>
<bpm>0</bpm>
<rpm>0.00</rpm>
</extensions>
</trkpt>
<trkpt lat="63.872020721" lon="-21.382825851">
<ele>4.5</ele>
<time>2012-07-27T20:05:58Z</time>
<speed>6.980000</speed>
<extensions>
<speed>7.0</speed>
<temp>0.00</temp>
<bpm>0</bpm>
<rpm>0.00</rpm>
</extensions>
</trkpt>
<trkpt lat="63.869754791" lon="-21.385393143">
<ele>4.8</ele>
<time>2012-07-27T20:06:38Z</time>
<speed>6.700000</speed>
<extensions>
<speed>6.7</speed>
<temp>0.00</temp>
<bpm>0</bpm>
<rpm>0.00</rpm>
</extensions>
</trkpt>
<trkpt lat="63.867382050" lon="-21.389200211">
<ele>4.9</ele>
<time>2012-07-27T20:07:38Z</time>
<speed>6.060000</speed>
<extensions>
<speed>6.1</speed>
<temp>0.00</temp>
<bpm>0</bpm>
<rpm>0.00</rpm>
</extensions>
</trkpt>
<trkpt lat="63.865367889" lon="-21.391166687">
<ele>6.2</ele>
<time>2012-07-27T20:09:03Z</time>
<speed>0.020000</speed>
<extensions>
<speed>0.0</speed>
<temp>0.00</temp>
<bpm>0</bpm>
<rpm>0.00</rpm>
</extensions>
</trkpt>
<trkpt lat="63.863197327" lon="-21.391069412">
<ele>8.1</ele>
<time>2012-07-27T20:10:38Z</time>
<speed>2.790000</speed>
<extensions>
<speed>2.8</speed>
<temp>0.00</temp>
<bpm>0</bpm>
<rpm>0.00</rpm>
</extensions>
</trkpt>
<trkpt lat="63.862354279" lon="-21.394952774">
<ele>7.2</ele>
<time>2012-07-27T20:14:03Z</time>
<speed>4.680000</speed>
<extensions>
<speed>4.7</speed>
<temp>0.00</temp>
<bpm>0</bpm>
<rpm>0.00</rpm>
</extensions>
</trkpt>
<trkpt lat="63.859081268" lon="-21.400341034">
<ele>10.8</ele>
<time>2012-07-27T20:15:43Z</time>
<speed>4.790000</speed>
<extensions>
<speed>4.8</speed>
<temp>0.00</temp>
<bpm>0</bpm>
<rpm>0.00</rpm>
</extensions>
</trkpt>
<trkpt lat="63.856674194" lon="-21.405908585">
<ele>13.6</ele>
<time>2012-07-27T20:17:08Z</time>
<speed>3.830000</speed>
<extensions>
<speed>3.8</speed>
<temp>0.00</temp>
<bpm>0</bpm>
<rpm>0.00</rpm>
</extensions>
</trkpt>
<trkpt lat="63.855098724" lon="-21.411035538">
<ele>14.7</ele>
<time>2012-07-27T20:18:13Z</time>
<speed>3.610000</speed>
<extensions>
<speed>3.6</speed>
<temp>0.00</temp>
<bpm>0</bpm>
<rpm>0.00</rpm>
</extensions>
</trkpt>
<trkpt lat="63.854152679" lon="-21.415309906">
<ele>15.8</ele>
<time>2012-07-27T20:19:08Z</time>
<speed>4.320000</speed>
<extensions>
<speed>4.3</speed>
<temp>0.00</temp>
<bpm>0</bpm>
<rpm>0.00</rpm>
</extensions>
</trkpt>
<trkpt lat="63.853427887" lon="-21.419809341">
<ele>15.7</ele>
<time>2012-07-27T20:20:03Z</time>
<speed>3.120000</speed>
<extensions>
<speed>3.1</speed>
<temp>0.00</temp>
<bpm>0</bpm>
<rpm>0.00</rpm>
</extensions>
</trkpt>
<trkpt lat="63.852943420" lon="-21.424467087">
<ele>15.9</ele>
<time>2012-07-27T20:20:58Z</time>
<speed>4.040000</speed>
<extensions>
<speed>4.0</speed>
<temp>0.00</temp>
<bpm>0</bpm>
<rpm>0.00</rpm>
</extensions>
</trkpt>
<trkpt lat="63.852035522" lon="-21.444379807">
<ele>16.3</ele>
<time>2012-07-27T20:25:03Z</time>
<speed>3.010000</speed>
<extensions>
<speed>3.0</speed>
<temp>0.00</temp>
<bpm>0</bpm>
<rpm>0.00</rpm>
</extensions>
</trkpt>
<trkpt lat="63.851455688" lon="-21.451763153">
<ele>15.1</ele>
<time>2012-07-27T20:26:28Z</time>
<speed>4.650000</speed>
<extensions>
<speed>4.6</speed>
<temp>0.00</temp>
<bpm>0</bpm>
<rpm>0.00</rpm>
</extensions>
</trkpt>
<trkpt lat="63.850616455" lon="-21.459793091">
<ele>13.3</ele>
<time>2012-07-27T20:28:08Z</time>
<speed>4.010000</speed>
<extensions>
<speed>4.0</speed>
<temp>0.00</temp>
<bpm>0</bpm>
<rpm>0.00</rpm>
</extensions>
</trkpt>
<trkpt lat="63.848693848" lon="-21.473243713">
<ele>10.3</ele>
<time>2012-07-27T20:30:43Z</time>
<speed>5.100000</speed>
<extensions>
<speed>5.1</speed>
<temp>0.00</temp>
<bpm>0</bpm>
<rpm>0.00</rpm>
</extensions>
</trkpt>
<trkpt lat="63.845386505" lon="-21.490320206">
<ele>15.4</ele>
<time>2012-07-27T20:34:03Z</time>
<speed>3.700000</speed>
<extensions>
<speed>3.7</speed>
<temp>0.00</temp>
<bpm>0</bpm>
<rpm>0.00</rpm>
</extensions>
</trkpt>
<trkpt lat="63.843727112" lon="-21.500480652">
<ele>13.8</ele>
<time>2012-07-27T20:36:08Z</time>
<speed>4.290000</speed>
<extensions>
<speed>4.3</speed>
<temp>0.00</temp>
<bpm>0</bpm>
<rpm>0.00</rpm>
</extensions>
</trkpt>
<trkpt lat="63.842426300" lon="-21.511253357">
<ele>13.3</ele>
<time>2012-07-27T20:38:28Z</time>
<speed>3.440000</speed>
<extensions>
<speed>3.4</speed>
<temp>0.00</temp>
<bpm>0</bpm>
<rpm>0.00</rpm>
</extensions>
</trkpt>
<trkpt lat="63.841476440" lon="-21.523719788">
<ele>11.3</ele>
<time>2012-07-27T20:54:38Z</time>
<speed>0.330000</speed>
<extensions>
<speed>0.3</speed>
<temp>0.00</temp>
<bpm>0</bpm>
<rpm>0.00</rpm>
</extensions>
</trkpt>
<trkpt lat="63.841854095" lon="-21.516429901">
<ele>12.6</ele>
<time>2012-07-27T20:56:13Z</time>
<speed>5.270000</speed>
<extensions>
<speed>5.3</speed>
<temp>0.00</temp>
<bpm>0</bpm>
<rpm>0.00</rpm>
</extensions>
</trkpt>
<trkpt lat="63.841957092" lon="-21.515287399">
<ele>13.5</ele>
<time>2012-07-27T21:02:08Z</time>
<speed>0.900000</speed>
<extensions>
<speed>0.9</speed>
<temp>0.00</temp>
<bpm>0</bpm>
<rpm>0.00</rpm>
</extensions>
</trkpt>
<trkpt lat="63.841331482" lon="-21.526922226">
<ele>12.3</ele>
<time>2012-07-27T21:04:38Z</time>
<speed>3.410000</speed>
<extensions>
<speed>3.4</speed>
<temp>0.00</temp>
<bpm>0</bpm>
<rpm>0.00</rpm>
</extensions>
</trkpt>
<trkpt lat="63.841098785" lon="-21.536848068">
<ele>15.0</ele>
<time>2012-07-27T21:07:18Z</time>
<speed>2.970000</speed>
<extensions>
<speed>3.0</speed>
<temp>0.00</temp>
<bpm>0</bpm>
<rpm>0.00</rpm>
</extensions>
</trkpt>
<trkpt lat="63.841411591" lon="-21.552474976">
<ele>13.1</ele>
<time>2012-07-27T21:10:58Z</time>
<speed>2.640000</speed>
<extensions>
<speed>2.6</speed>
<temp>0.00</temp>
<bpm>0</bpm>
<rpm>0.00</rpm>
</extensions>
</trkpt>
<trkpt lat="63.841354370" lon="-21.561479568">
<ele>10.3</ele>
<time>2012-07-27T21:13:13Z</time>
<speed>3.830000</speed>
<extensions>
<speed>3.8</speed>
<temp>0.00</temp>
<bpm>0</bpm>
<rpm>0.00</rpm>
</extensions>
</trkpt>
<trkpt lat="63.840881348" lon="-21.571485519">
<ele>10.1</ele>
<time>2012-07-27T21:15:38Z</time>
<speed>4.010000</speed>
<extensions>
<speed>4.0</speed>
<temp>0.00</temp>
<bpm>0</bpm>
<rpm>0.00</rpm>
</extensions>
</trkpt>
<trkpt lat="63.840087891" lon="-21.580480576">
<ele>6.1</ele>
<time>2012-07-27T21:17:38Z</time>
<speed>4.330000</speed>
<extensions>
<speed>4.3</speed>
<temp>0.00</temp>
<bpm>0</bpm>
<rpm>0.00</rpm>
</extensions>
</trkpt>
<trkpt lat="63.839118958" lon="-21.587978363">
<ele>3.1</ele>
<time>2012-07-27T21:19:03Z</time>
<speed>4.440000</speed>
<extensions>
<speed>4.4</speed>
<temp>0.00</temp>
<bpm>0</bpm>
<rpm>0.00</rpm>
</extensions>
</trkpt>
<trkpt lat="63.837825775" lon="-21.595788956">
<ele>2.2</ele>
<time>2012-07-27T21:20:38Z</time>
<speed>3.980000</speed>
<extensions>
<speed>4.0</speed>
<temp>0.00</temp>
<bpm>0</bpm>
<rpm>0.00</rpm>
</extensions>
</trkpt>
<trkpt lat="63.833656311" lon="-21.614738464">
<ele>9.5</ele>
<time>2012-07-27T21:26:15Z</time>
<speed>4.300000</speed>
<extensions>
<speed>4.3</speed>
<temp>0.00</temp>
<bpm>0</bpm>
<rpm>0.00</rpm>
</extensions>
</trkpt>
<trkpt lat="63.832832336" lon="-21.620231628">
<ele>11.8</ele>
<time>2012-07-27T21:27:25Z</time>
<speed>3.940000</speed>
<extensions>
<speed>3.9</speed>
<temp>0.00</temp>
<bpm>0</bpm>
<rpm>0.00</rpm>
</extensions>
</trkpt>
<trkpt lat="63.832141876" lon="-21.626556396">
<ele>14.1</ele>
<time>2012-07-27T21:28:55Z</time>
<speed>2.980000</speed>
<extensions>
<speed>3.0</speed>
<temp>0.00</temp>
<bpm>0</bpm>
<rpm>0.00</rpm>
</extensions>
</trkpt>
<trkpt lat="63.831703186" lon="-21.635238647">
<ele>13.8</ele>
<time>2012-07-27T21:30:40Z</time>
<speed>4.140000</speed>
<extensions>
<speed>4.1</speed>
<temp>0.00</temp>
<bpm>0</bpm>
<rpm>0.00</rpm>
</extensions>
</trkpt>
<trkpt lat="63.831726074" lon="-21.641532898">
<ele>11.5</ele>
<time>2012-07-27T21:31:55Z</time>
<speed>3.830000</speed>
<extensions>
<speed>3.8</speed>
<temp>0.00</temp>
<bpm>0</bpm>
<rpm>0.00</rpm>
</extensions>
</trkpt>
<trkpt lat="63.831935883" lon="-21.646129608">
<ele>12.1</ele>
<time>2012-07-27T21:32:55Z</time>
<speed>3.940000</speed>
<extensions>
<speed>3.9</speed>
<temp>0.00</temp>
<bpm>0</bpm>
<rpm>0.00</rpm>
</extensions>
</trkpt>
<trkpt lat="63.832355499" lon="-21.651241302">
<ele>13.8</ele>
<time>2012-07-27T21:33:55Z</time>
<speed>4.180000</speed>
<extensions>
<speed>4.2</speed>
<temp>0.00</temp>
<bpm>0</bpm>
<rpm>0.00</rpm>
</extensions>
</trkpt>
<trkpt lat="63.832969666" lon="-21.656229019">
<ele>14.7</ele>
<time>2012-07-27T21:34:55Z</time>
<speed>4.550000</speed>
<extensions>
<speed>4.5</speed>
<temp>0.00</temp>
<bpm>0</bpm>
<rpm>0.00</rpm>
</extensions>
</trkpt>
<trkpt lat="63.833679199" lon="-21.660720825">
<ele>14.4</ele>
<time>2012-07-27T21:35:55Z</time>
<speed>2.970000</speed>
<extensions>
<speed>3.0</speed>
<temp>0.00</temp>
<bpm>0</bpm>
<rpm>0.00</rpm>
</extensions>
</trkpt>
<trkpt lat="63.834583282" lon="-21.665159225">
<ele>15.6</ele>
<time>2012-07-27T21:37:00Z</time>
<speed>1.820000</speed>
<extensions>
<speed>1.8</speed>
<temp>0.00</temp>
<bpm>0</bpm>
<rpm>0.00</rpm>
</extensions>
</trkpt>
</trkseg>
</trk>
</gpx>